createdAt,value
2018-12-10T00:00:27.447Z,100610.22
2018-12-10T00:03:03.603Z,100605.94
2018-12-10T00:05:36.526Z,100619.84
2018-12-10T00:08:09.495Z,100622.91
2018-12-10T00:11:04.487Z,100626.98
2018-12-10T00:13:41.056Z,100628.45
2018-12-10T00:16:10.163Z,100626.25
2018-12-10T00:18:46.423Z,100636.52
2018-12-10T00:21:24.588Z,100633.70
2018-12-10T00:24:02.199Z,100634.74
2018-12-10T00:26:31.298Z,100631.40
2018-12-10T00:29:34.250Z,100637.95
2018-12-10T00:32:10.823Z,100635.53
2018-12-10T00:34:43.590Z,100640.55
2018-12-10T00:37:16.484Z,100656.33
2018-12-10T00:39:53.390Z,100653.17
2018-12-10T00:42:30.396Z,100656.86
2018-12-10T00:44:59.569Z,100660.27
2018-12-10T00:47:41.756Z,100656.14
2018-12-10T00:50:23.559Z,100660.65
2018-12-10T00:52:56.023Z,100674.41
2018-12-10T00:55:36.281Z,100676.23
2018-12-10T00:58:15.560Z,100675.62
2018-12-10T01:00:53.163Z,100672.02
2018-12-10T01:03:22.429Z,100675.33
2018-12-10T01:05:55.343Z,100670.73
2018-12-10T01:08:31.876Z,100670.09
2018-12-10T01:11:09.975Z,100678.02
2018-12-10T01:13:42.685Z,100689.28
2018-12-10T01:16:22.061Z,100690.23
2018-12-10T01:18:58.792Z,100695.50
2018-12-10T01:21:33.919Z,100706.16
2018-12-10T01:24:09.507Z,100704.14
2018-12-10T01:26:42.595Z,100716.13
2018-12-10T01:29:19.360Z,100708.13
2018-12-10T01:31:56.466Z,100705.51
2018-12-10T01:34:29.222Z,100712.08
2018-12-10T01:37:03.480Z,100716.59
2018-12-10T01:39:40.897Z,100716.06
2018-12-10T01:42:20.707Z,100715.68
2018-12-10T01:45:07.644Z,100731.11
2018-12-10T01:47:44.057Z,100741.52
2018-12-10T01:50:16.948Z,100733.16
2018-12-10T01:52:53.993Z,100755.36
2018-12-10T01:55:26.485Z,100758.01
2018-12-10T01:58:03.456Z,100762.72
2018-12-10T02:05:33.568Z,100768.10
2018-12-10T02:08:06.516Z,100762.02
2018-12-10T02:10:43.245Z,100772.11
2018-12-10T02:13:16.186Z,100770.32
2018-12-10T02:15:49.078Z,100776.80
2018-12-10T02:18:20.342Z,100775.01
2018-12-10T02:20:53.181Z,100778.34
2018-12-10T02:23:24.232Z,100783.83
2018-12-10T02:26:00.958Z,100783.84
2018-12-10T02:28:38.899Z,100773.83
2018-12-10T02:31:11.878Z,100784.34
2018-12-10T02:33:48.671Z,100776.41
2018-12-10T02:36:25.846Z,100784.22
2018-12-10T02:38:58.660Z,100786.20
2018-12-10T02:41:31.723Z,100787.17
2018-12-10T02:44:02.611Z,100802.75
2018-12-10T02:46:35.341Z,100794.46
2018-12-10T02:49:08.181Z,100793.27
2018-12-10T02:51:41.278Z,100791.42
2018-12-10T02:54:18.254Z,100801.05
2018-12-10T02:56:55.444Z,100800.43
2018-12-10T02:59:28.414Z,100803.08
2018-12-10T03:01:59.243Z,100799.28
2018-12-10T03:07:01.672Z,100796.16
2018-12-10T03:09:32.766Z,100793.16
2018-12-10T03:12:09.606Z,100802.14
2018-12-10T03:14:42.565Z,100807.77
2018-12-10T03:17:19.531Z,100818.05
2018-12-10T03:19:52.442Z,100822.88
2018-12-10T03:22:24.645Z,100834.16
2018-12-10T03:24:57.497Z,100832.51
2018-12-10T03:27:40.042Z,100831.97
2018-12-10T03:30:12.512Z,100835.94
2018-12-10T03:32:45.586Z,100835.27
2018-12-10T03:35:18.660Z,100843.55
2018-12-10T03:37:51.372Z,100843.90
2018-12-10T03:40:23.693Z,100847.53
2018-12-10T03:42:54.823Z,100853.36
2018-12-10T03:45:27.438Z,100860.14
2018-12-10T03:48:00.520Z,100864.11
2018-12-10T03:50:37.229Z,100865.11
2018-12-10T03:53:10.318Z,100861.78
2018-12-10T03:55:47.270Z,100863.97
2018-12-10T03:58:23.947Z,100867.28
2018-12-10T04:00:56.864Z,100874.93
2018-12-10T04:03:37.256Z,100885.38
2018-12-10T04:06:14.154Z,100875.75
2018-12-10T04:11:14.412Z,100876.43
2018-12-10T04:13:47.475Z,100876.09
2018-12-10T04:16:20.326Z,100881.57
2018-12-10T04:18:54.002Z,100884.04
2018-12-10T04:21:30.336Z,100883.39
2018-12-10T04:24:07.266Z,100889.03
2018-12-10T04:26:44.303Z,100881.73
2018-12-10T04:29:20.918Z,100884.53
2018-12-10T04:31:57.211Z,100880.89
2018-12-10T04:34:34.530Z,100888.83
2018-12-10T04:37:11.456Z,100886.38
2018-12-10T04:39:44.004Z,100882.39
2018-12-10T04:42:17.108Z,100885.36
2018-12-10T04:44:50.243Z,100902.30
2018-12-10T04:47:23.299Z,100895.81
2018-12-10T04:49:59.713Z,100902.28
2018-12-10T04:52:32.715Z,100903.92
2018-12-10T04:55:09.631Z,100911.05
2018-12-10T04:57:42.509Z,100927.66
2018-12-10T05:00:15.527Z,100925.50
2018-12-10T05:02:48.499Z,100931.61
2018-12-10T05:05:25.463Z,100931.44
2018-12-10T05:08:05.388Z,100941.41
2018-12-10T05:10:37.639Z,100940.89
2018-12-10T05:13:10.547Z,100944.87
2018-12-10T05:15:43.266Z,100950.49
2018-12-10T05:18:20.272Z,100954.98
2018-12-10T05:24:31.962Z,100960.95
2018-12-10T05:27:04.526Z,100964.92
2018-12-10T05:29:37.327Z,100961.12
2018-12-10T05:32:10.434Z,100956.16
2018-12-10T05:34:47.433Z,100960.64
2018-12-10T05:37:24.315Z,100960.78
2018-12-10T05:39:57.531Z,100972.56
2018-12-10T05:42:30.424Z,100968.74
2018-12-10T05:45:01.563Z,100964.25
2018-12-10T05:47:34.435Z,100981.17
2018-12-10T05:50:06.146Z,100980.97
2018-12-10T05:52:39.163Z,100978.80
2018-12-10T05:55:16.492Z,100985.63
2018-12-10T05:57:53.291Z,100994.08
2018-12-10T06:00:26.438Z,100987.96
2018-12-10T06:03:03.283Z,100997.27
2018-12-10T06:05:34.605Z,100998.39
2018-12-10T06:08:06.951Z,100987.15
2018-12-10T06:10:39.195Z,100996.61
2018-12-10T06:13:16.147Z,100990.14
2018-12-10T06:15:53.331Z,101000.10
2018-12-10T06:18:30.053Z,101001.44
2018-12-10T06:21:06.633Z,101001.07
2018-12-10T06:23:39.475Z,101002.23
2018-12-10T06:26:12.428Z,100998.91
2018-12-10T06:28:49.562Z,101008.31
2018-12-10T06:31:18.811Z,101003.82
2018-12-10T06:33:55.243Z,101009.92
2018-12-10T06:36:28.331Z,101016.59
2018-12-10T06:39:04.534Z,101015.61
2018-12-10T06:41:37.237Z,101007.94
2018-12-10T06:44:10.100Z,101015.95
2018-12-10T06:46:47.064Z,101016.27
2018-12-10T06:49:23.896Z,101019.41
2018-12-10T06:51:54.834Z,101022.27
2018-12-10T06:54:27.818Z,101030.22
2018-12-10T06:57:00.767Z,101036.16
2018-12-10T06:59:31.748Z,101031.52
2018-12-10T07:02:08.735Z,101042.58
2018-12-10T07:04:46.066Z,101046.76
2018-12-10T07:07:22.891Z,101037.66
2018-12-10T07:09:59.603Z,101034.55
2018-12-10T07:12:36.785Z,101048.50
2018-12-10T07:15:13.335Z,101036.73
2018-12-10T07:20:14.855Z,101050.14
2018-12-10T07:22:45.575Z,101053.11
2018-12-10T07:25:18.594Z,101062.09
2018-12-10T07:27:51.551Z,101064.75
2018-12-10T07:33:52.215Z,101070.52
2018-12-10T07:36:29.058Z,101075.68
2018-12-10T07:39:07.455Z,101078.48
2018-12-10T07:41:36.595Z,101075.34
2018-12-10T07:44:14.880Z,101076.63
2018-12-10T07:46:45.357Z,101083.26
2018-12-10T07:49:45.193Z,101089.40
2018-12-10T07:52:14.566Z,101083.98
2018-12-10T07:55:04.297Z,101084.82
2018-12-10T07:57:41.065Z,101087.97
2018-12-10T08:00:18.797Z,101083.29
2018-12-10T08:02:55.913Z,101099.03
2018-12-10T08:05:28.732Z,101098.89
2018-12-10T08:08:02.012Z,101090.94
2018-12-10T08:10:34.743Z,101106.63
2018-12-10T08:13:12.027Z,101105.97
2018-12-10T08:15:44.456Z,101115.88
2018-12-10T08:18:16.732Z,101117.55
2018-12-10T08:20:49.803Z,101123.34
2018-12-10T08:23:27.289Z,101129.31
2018-12-10T08:25:59.827Z,101125.42
2018-12-10T08:28:37.042Z,101129.81
2018-12-10T08:31:10.092Z,101131.80
2018-12-10T08:33:42.871Z,101132.46
2018-12-10T08:36:15.972Z,101119.16
2018-12-10T08:38:53.005Z,101128.10
2018-12-10T08:41:26.139Z,101124.92
2018-12-10T08:43:59.147Z,101130.61
2018-12-10T08:46:36.025Z,101123.17
2018-12-10T08:49:09.146Z,101122.19
2018-12-10T08:51:41.919Z,101120.58
2018-12-10T08:54:15.122Z,101131.88
2018-12-10T08:56:48.291Z,101145.17
2018-12-10T08:59:20.635Z,101139.86
2018-12-10T09:01:57.595Z,101149.31
2018-12-10T09:04:34.042Z,101150.45
2018-12-10T09:07:06.915Z,101150.28
2018-12-10T09:09:40.180Z,101161.02
2018-12-10T09:12:10.891Z,101165.48
2018-12-10T09:14:47.808Z,101168.98
2018-12-10T09:17:24.878Z,101164.83
2018-12-10T09:20:01.875Z,101167.69
2018-12-10T09:22:34.896Z,101166.52
2018-12-10T09:35:10.042Z,101172.70
2018-12-10T09:37:43.236Z,101176.51
2018-12-10T09:40:16.320Z,101174.34
2018-12-10T09:42:47.244Z,101189.00
2018-12-10T09:45:20.342Z,101179.05
2018-12-10T09:47:54.203Z,101188.03
2018-12-10T09:50:27.006Z,101178.08
2018-12-10T09:53:04.092Z,101176.89
2018-12-10T09:55:36.596Z,101165.93
2018-12-10T09:58:13.660Z,101179.23
2018-12-10T10:00:46.576Z,101169.23
2018-12-10T10:03:19.623Z,101174.52
2018-12-10T10:05:52.826Z,101170.95
2018-12-10T10:08:25.538Z,101169.70
2018-12-10T10:10:58.584Z,101168.15
2018-12-10T10:13:31.552Z,101170.97
2018-12-10T10:16:04.475Z,101177.19
2018-12-10T10:18:41.832Z,101174.19
2018-12-10T10:21:21.951Z,101174.19
2018-12-10T10:23:52.908Z,101176.94
2018-12-10T10:26:29.076Z,101189.13
2018-12-10T10:29:02.307Z,101177.48
2018-12-10T10:31:33.131Z,101180.31
2018-12-10T10:34:10.088Z,101188.79
2018-12-10T10:36:44.558Z,101188.30
2018-12-10T10:39:22.924Z,101180.25
2018-12-10T10:41:59.541Z,101174.27
2018-12-10T10:44:32.775Z,101181.64
2018-12-10T10:47:19.123Z,101185.65
2018-12-10T10:50:00.925Z,101186.02
2018-12-10T10:52:37.504Z,101165.06
2018-12-10T10:55:10.642Z,101175.05
2018-12-10T10:57:47.613Z,101182.20
2018-12-10T11:00:25.359Z,101171.08
2018-12-10T11:03:03.492Z,101169.05
2018-12-10T11:05:36.069Z,101182.98
2018-12-10T11:08:08.566Z,101177.68
2018-12-10T11:10:41.460Z,101177.02
2018-12-10T11:13:14.559Z,101178.94
2018-12-10T11:15:46.887Z,101178.60
2018-12-10T11:18:19.904Z,101162.23
2018-12-10T11:20:52.560Z,101169.37
2018-12-10T11:23:25.873Z,101158.56
2018-12-10T11:25:58.710Z,101162.73
2018-12-10T11:28:29.764Z,101166.02
2018-12-10T11:31:02.683Z,101170.30
2018-12-10T11:33:35.707Z,101172.59
2018-12-10T11:36:09.698Z,101173.38
2018-12-10T11:43:47.055Z,101178.20
2018-12-10T11:46:19.979Z,101180.05
2018-12-10T11:48:56.695Z,101166.44
2018-12-10T11:51:25.931Z,101163.94
2018-12-10T11:54:03.875Z,101155.47
2018-12-10T11:56:41.147Z,101161.30
2018-12-10T11:59:12.153Z,101167.09
2018-12-10T12:01:45.051Z,101160.28
2018-12-10T12:04:17.939Z,101154.98
2018-12-10T12:06:55.028Z,101152.95
2018-12-10T12:09:32.650Z,101158.59
2018-12-10T12:12:27.815Z,101163.09
2018-12-10T12:15:00.325Z,101158.72
2018-12-10T12:17:33.473Z,101154.03
2018-12-10T12:20:11.366Z,101147.01
2018-12-10T12:22:44.505Z,101154.81
2018-12-10T12:25:17.776Z,101170.28
2018-12-10T12:27:50.619Z,101148.31
2018-12-10T12:30:23.519Z,101150.27
2018-12-10T12:32:56.867Z,101150.04
2018-12-10T12:35:29.350Z,101142.92
2018-12-10T12:38:02.384Z,101139.27
2018-12-10T12:40:35.237Z,101149.58
2018-12-10T12:43:15.816Z,101130.88
2018-12-10T12:45:45.095Z,101129.80
2018-12-10T12:48:18.599Z,101125.45
2018-12-10T12:50:51.287Z,101118.33
2018-12-10T12:53:24.471Z,101116.13
2018-12-10T12:56:01.306Z,101110.48
2018-12-10T12:58:34.487Z,101108.59
2018-12-10T13:01:07.711Z,101104.83
2018-12-10T13:03:40.614Z,101110.42
2018-12-10T13:06:13.008Z,101101.52
2018-12-10T13:08:46.070Z,101113.45
2018-12-10T13:11:17.335Z,101105.28
2018-12-10T13:13:50.362Z,101108.11
2018-12-10T13:16:23.407Z,101099.28
2018-12-10T13:18:56.335Z,101100.45
2018-12-10T13:21:33.338Z,101104.26
2018-12-10T13:24:06.299Z,101106.44
2018-12-10T13:26:39.305Z,101109.36
2018-12-10T13:29:12.388Z,101106.16
2018-12-10T13:31:45.048Z,101126.50
2018-12-10T13:34:18.301Z,101133.57
2018-12-10T13:36:51.059Z,101144.66
2018-12-10T13:39:24.384Z,101146.05
2018-12-10T13:41:57.119Z,101153.98
2018-12-10T13:44:33.964Z,101147.75
2018-12-10T13:47:07.280Z,101149.80
2018-12-10T13:49:40.339Z,101153.34
2018-12-10T13:52:13.538Z,101151.70
2018-12-10T13:54:50.348Z,101153.08
2018-12-10T13:57:27.418Z,101156.56
2018-12-10T14:00:05.075Z,101164.78
2018-12-10T14:02:38.244Z,101170.25
2018-12-10T14:05:14.054Z,101195.23
2018-12-10T14:07:47.955Z,101184.94
2018-12-10T14:10:27.995Z,101180.41
2018-12-10T14:13:47.002Z,101171.41
2018-12-10T14:16:25.423Z,101169.66
2018-12-10T14:19:08.049Z,101163.49
2018-12-10T14:21:37.443Z,101168.78
2018-12-10T14:24:06.919Z,101173.16
2018-12-10T14:26:36.191Z,101166.97
2018-12-10T14:29:06.581Z,101164.48
2018-12-10T14:31:56.407Z,101170.09
2018-12-10T14:34:29.004Z,101171.95
2018-12-10T14:37:06.031Z,101182.66
2018-12-10T14:39:42.725Z,101177.32
2018-12-10T14:42:23.215Z,101177.46
2018-12-10T14:48:16.036Z,101167.66
2018-12-10T14:50:45.362Z,101173.97
2018-12-10T14:53:14.698Z,101166.38
2018-12-10T14:55:44.072Z,101173.16
2018-12-10T14:58:17.332Z,101186.13
2018-12-10T15:00:46.671Z,101177.66
2018-12-10T15:03:19.815Z,101184.47
2018-12-10T15:05:49.210Z,101192.13
2018-12-10T15:08:22.087Z,101203.20
2018-12-10T15:10:59.005Z,101212.84
2018-12-10T15:13:35.580Z,101210.19
2018-12-10T15:16:12.409Z,101218.44
2018-12-10T15:18:45.577Z,101216.44
2018-12-10T15:21:18.405Z,101220.77
2018-12-10T15:23:51.363Z,101224.23
2018-12-10T15:26:24.170Z,101221.08
2018-12-10T15:28:58.283Z,101217.06
2018-12-10T15:31:31.147Z,101218.04
2018-12-10T15:34:08.734Z,101213.96
2018-12-10T15:36:41.987Z,101221.41
2018-12-10T15:39:15.011Z,101230.06
2018-12-10T15:41:48.688Z,101217.77
2018-12-10T15:44:22.205Z,101228.52
2018-12-10T15:46:55.091Z,101233.34
2018-12-10T15:49:31.747Z,101236.61
2018-12-10T15:52:08.619Z,101232.14
2018-12-10T15:54:45.670Z,101231.61
2018-12-10T15:57:18.394Z,101229.63
2018-12-10T15:59:55.606Z,101219.36
2018-12-10T16:02:28.858Z,101234.58
2018-12-10T16:05:00.476Z,101228.25
2018-12-10T16:07:33.472Z,101234.58
2018-12-10T16:10:10.882Z,101235.50
2018-12-10T16:12:42.263Z,101231.63
2018-12-10T16:15:19.139Z,101231.81
2018-12-10T16:17:52.035Z,101234.53
2018-12-10T16:20:25.171Z,101236.99
2018-12-10T16:23:02.202Z,101237.97
2018-12-10T16:25:39.051Z,101241.22
2018-12-10T16:28:12.094Z,101233.13
2018-12-10T16:30:49.327Z,101235.91
2018-12-10T16:33:39.927Z,101252.17
2018-12-10T16:36:16.766Z,101260.50
2018-12-10T16:38:49.467Z,101256.56
2018-12-10T16:41:22.539Z,101264.92
2018-12-10T16:43:55.469Z,101260.77
2018-12-10T16:46:32.403Z,101252.62
2018-12-10T16:54:07.823Z,101256.16
2018-12-10T16:56:41.027Z,101267.44
2018-12-10T16:59:13.913Z,101263.63
2018-12-10T17:01:50.885Z,101256.16
2018-12-10T17:05:07.340Z,101260.94
2018-12-10T17:07:44.153Z,101260.73
2018-12-10T17:10:20.867Z,101245.33
2018-12-10T17:12:50.528Z,101264.18
2018-12-10T17:15:20.163Z,101265.50
2018-12-10T17:17:57.119Z,101277.31
2018-12-10T17:20:30.102Z,101273.20
2018-12-10T17:23:03.140Z,101260.59
2018-12-10T17:25:36.043Z,101272.80
2018-12-10T17:28:14.282Z,101272.58
2018-12-10T17:30:48.052Z,101270.09
2018-12-10T17:33:21.668Z,101280.09
2018-12-10T17:35:54.409Z,101280.09
2018-12-10T17:38:37.391Z,101276.06
2018-12-10T17:41:10.588Z,101276.02
2018-12-10T17:43:43.751Z,101277.40
2018-12-10T17:46:20.631Z,101281.52
2018-12-10T17:48:53.842Z,101272.89
2018-12-10T17:51:30.873Z,101275.76
2018-12-10T17:54:04.244Z,101273.06
2018-12-10T17:56:37.945Z,101274.88
2018-12-10T17:59:16.265Z,101271.88
2018-12-10T18:01:47.275Z,101267.36
2018-12-10T18:04:20.387Z,101273.63
2018-12-10T18:06:57.269Z,101274.74
2018-12-10T18:09:30.542Z,101264.91
2018-12-10T18:12:03.613Z,101273.00
2018-12-10T18:14:36.654Z,101274.06
2018-12-10T18:17:12.028Z,101272.02
2018-12-10T18:19:44.918Z,101269.69
2018-12-10T18:22:17.733Z,101269.38
2018-12-10T18:24:51.094Z,101265.74
2018-12-10T18:27:22.819Z,101266.05
2018-12-10T18:29:59.753Z,101257.37
2018-12-10T18:32:32.707Z,101249.42
2018-12-10T18:35:05.942Z,101275.94
2018-12-10T18:37:39.434Z,101268.16
2018-12-10T18:40:14.598Z,101272.33
2018-12-10T18:42:52.739Z,101270.33
2018-12-10T18:45:26.841Z,101279.97
2018-12-10T18:48:04.410Z,101275.28
2018-12-10T18:50:37.474Z,101279.25
2018-12-10T18:53:15.299Z,101287.47
2018-12-10T18:55:58.267Z,101283.00
2018-12-10T18:58:35.451Z,101284.56
2018-12-10T19:01:05.144Z,101293.73
2018-12-10T19:03:42.632Z,101284.73
2018-12-10T19:06:21.068Z,101290.22
2018-12-10T19:08:55.070Z,101299.51
2018-12-10T19:11:32.446Z,101287.94
2018-12-10T19:14:05.463Z,101282.69
2018-12-10T19:16:39.495Z,101295.65
2018-12-10T19:19:48.978Z,101294.95
2018-12-10T19:22:25.597Z,101296.25
2018-12-10T19:25:11.578Z,101296.92
2018-12-10T19:27:48.433Z,101310.50
2018-12-10T19:30:25.143Z,101297.97
2018-12-10T19:33:01.874Z,101294.77
2018-12-10T19:35:34.762Z,101296.94
2018-12-10T19:38:07.909Z,101306.94
2018-12-10T19:40:44.708Z,101311.84
2018-12-10T19:43:17.479Z,101306.33
2018-12-10T19:45:48.632Z,101301.98
2018-12-10T19:48:21.671Z,101300.28
2018-12-10T19:50:54.515Z,101290.58
2018-12-10T19:53:27.383Z,101312.36
2018-12-10T19:55:58.143Z,101304.70
2018-12-10T19:58:30.909Z,101311.98
2018-12-10T20:01:03.931Z,101308.47
2018-12-10T20:03:38.255Z,101308.73
2018-12-10T20:06:19.233Z,101311.97
2018-12-10T20:08:53.263Z,101317.46
2018-12-10T20:11:30.367Z,101311.02
2018-12-10T20:14:03.248Z,101316.25
2018-12-10T20:16:36.610Z,101313.02
2018-12-10T20:19:09.359Z,101320.91
2018-12-10T20:21:42.643Z,101323.23
2018-12-10T20:24:19.751Z,101327.91
2018-12-10T20:26:56.715Z,101317.58
2018-12-10T20:29:29.687Z,101314.27
2018-12-10T20:32:02.585Z,101319.92
2018-12-10T20:34:35.526Z,101309.97
2018-12-10T20:37:08.799Z,101308.91
2018-12-10T20:39:41.753Z,101323.48
2018-12-10T20:42:14.934Z,101322.81
2018-12-10T20:44:47.982Z,101320.52
2018-12-10T20:47:24.677Z,101327.06
2018-12-10T20:49:57.698Z,101322.98
2018-12-10T20:52:30.914Z,101321.19
2018-12-10T20:55:03.843Z,101332.33
2018-12-10T20:57:41.465Z,101326.11
2018-12-10T21:00:13.654Z,101335.11
2018-12-10T21:02:46.659Z,101333.84
2018-12-10T21:05:20.560Z,101329.58
2018-12-10T21:07:53.664Z,101341.06
2018-12-10T21:10:26.630Z,101342.64
2018-12-10T21:12:59.901Z,101333.70
2018-12-10T21:15:33.528Z,101332.30
2018-12-10T21:18:05.047Z,101348.34
2018-12-10T21:20:38.119Z,101341.07
2018-12-10T21:23:11.103Z,101343.74
2018-12-10T21:25:44.071Z,101345.42
2018-12-10T21:28:16.917Z,101338.81
2018-12-10T21:30:50.053Z,101345.77
2018-12-10T21:33:23.172Z,101329.41
2018-12-10T21:35:56.274Z,101332.53
2018-12-10T21:38:29.379Z,101337.48
2018-12-10T21:41:02.507Z,101336.88
2018-12-10T21:43:39.334Z,101340.92
2018-12-10T21:46:12.333Z,101337.23
2018-12-10T21:48:45.342Z,101343.88
2018-12-10T21:51:18.141Z,101351.25
2018-12-10T21:53:55.212Z,101366.22
2018-12-10T21:56:27.947Z,101363.63
2018-12-10T21:59:04.959Z,101362.66
2018-12-10T22:01:37.853Z,101338.29
2018-12-10T22:04:10.733Z,101347.16
2018-12-10T22:06:47.679Z,101351.78
2018-12-10T22:09:20.651Z,101368.26
2018-12-10T22:11:57.839Z,101358.62
2018-12-10T22:14:30.684Z,101351.54
2018-12-10T22:17:03.533Z,101345.30
2018-12-10T22:19:40.460Z,101348.07
2018-12-10T22:22:13.311Z,101348.46
2018-12-10T22:24:50.130Z,101341.83
2018-12-10T22:27:27.271Z,101345.72
2018-12-10T22:30:00.034Z,101345.05
2018-12-10T22:32:32.984Z,101347.62
2018-12-10T22:35:19.160Z,101355.94
2018-12-10T22:37:55.678Z,101374.89
2018-12-10T22:40:28.311Z,101376.10
2018-12-10T22:43:01.233Z,101380.29
2018-12-10T22:45:30.376Z,101368.70
2018-12-10T22:48:08.365Z,101366.33
2018-12-10T22:51:11.738Z,101362.28
2018-12-10T22:53:58.288Z,101362.94
2018-12-10T22:56:49.670Z,101356.91
2018-12-10T22:59:39.367Z,101365.27
2018-12-10T23:05:39.241Z,101353.09
2018-12-10T23:08:12.046Z,101356.31
2018-12-10T23:10:45.182Z,101353.33
2018-12-10T23:13:21.800Z,101371.32
2018-12-10T23:15:51.003Z,101367.78
2018-12-10T23:18:20.111Z,101353.71
2018-12-10T23:20:57.126Z,101370.14
2018-12-10T23:23:33.966Z,101369.76
2018-12-10T23:26:07.012Z,101345.65
2018-12-10T23:28:40.099Z,101358.53
2018-12-10T23:31:12.896Z,101368.53
2018-12-10T23:33:43.855Z,101365.45
2018-12-10T23:36:16.771Z,101367.70
2018-12-10T23:38:47.572Z,101371.32
2018-12-10T23:41:24.238Z,101371.46
2018-12-10T23:44:01.039Z,101371.86
2018-12-10T23:46:38.325Z,101377.92
2018-12-10T23:49:11.237Z,101372.70
2018-12-10T23:51:41.798Z,101383.05
2018-12-10T23:54:14.786Z,101382.09
2018-12-10T23:56:47.865Z,101378.58
2018-12-10T23:59:20.491Z,101384.07
